Flight Track Log - Related Links

Times and Time Zones

All times are in EDT time to prevent confusion due to time zone crossing. See the N789EX flight status page for this flight to view local times or setup timezone preferences in your user account.

Time Position Orientation Groundspeed Altitude Reporting Facility
EDT Latitude Longitude Course Direction KTS MPH feet Rate Location/Type
Mon 11:55:30 AM 47.5579 -122.3290 325° Northwest 175 201 1,400  Level FlightAware ADS-B
Mon 11:55:45 AM 47.5689 -122.3410 325° Northwest 206 237 1,600 1,161 Climbing FlightAware ADS-B
Mon 11:56:01 AM 47.5822 -122.3540 325° Northwest 236 272 2,000 2,250 Climbing FlightAware ADS-B
Mon 11:56:17 AM 47.5977 -122.3700 326° Northwest 260 299 2,800 3,290 Climbing FlightAware ADS-B
Mon 11:56:32 AM 47.6136 -122.3850 327° Northwest 269 310 3,700 4,000 Climbing FlightAware ADS-B
Mon 11:56:41 AM 47.6225 -122.3940 327° Northwest 271 312 4,400 4,500 Climbing FlightAware ADS-B
Mon 11:56:44 AM 47.6260 -122.3970 325° Northwest 272 313 4,600 4,286 Climbing FlightAware ADS-B
Mon 11:56:48 AM 47.6299 -122.4020 319° Northwest 271 312 4,900 4,500 Climbing FlightAware ADS-B
Mon 11:56:52 AM 47.6334 -122.4070 313° West 271 312 5,200 4,500 Climbing FlightAware ADS-B
Mon 11:56:56 AM 47.6369 -122.4140 308° West 271 312 5,500 4,200 Climbing FlightAware ADS-B
Mon 11:57:02 AM 47.6407 -122.4220 303° West 272 313 5,900 4,235 Climbing FlightAware ADS-B
Mon 11:57:13 AM 47.6478 -122.4390 302° West 274 315 6,700 3,857 Climbing FlightAware ADS-B
Mon 11:57:16 AM 47.6499 -122.4440 304° West 276 318 6,800 4,000 Climbing FlightAware ADS-B
Mon 11:57:19 AM 47.6527 -122.4500 309° West 277 319 7,100 4,286 Climbing FlightAware ADS-B
Mon 11:57:23 AM 47.6561 -122.4550 315° West 279 321 7,300 3,000 Climbing FlightAware ADS-B
Mon 11:57:27 AM 47.6599 -122.4590 323° Northwest 281 323 7,500 3,000 Climbing FlightAware ADS-B
Mon 11:57:33 AM 47.6665 -122.4650 333° Northwest 284 327 7,800 2,250 Climbing FlightAware ADS-B
Mon 11:57:35 AM 47.6687 -122.4662 339° North 285 328 7,800 1,500 Level FlightAware ADS-B (CYVR)
Mon 11:57:37 AM 47.6714 -122.4680 341° North 285 328 7,900 3,600 Climbing FlightAware ADS-B
Mon 11:57:40 AM 47.6764 -122.4690 350° North 287 330 8,100 2,667 Climbing FlightAware ADS-B
Mon 11:57:46 AM 47.6835 -122.4700 355° North 288 331 8,300 1,846 Climbing FlightAware ADS-B
Mon 11:57:53 AM 47.6926 -122.4700 North 289 333 8,500 1,500 Climbing FlightAware ADS-B
Mon 11:57:54 AM 47.6803 -122.4700 North 290 334 8,500 1,500 Level FlightAware ADS-B (CYVR)
Mon 11:57:57 AM 47.6982 -122.4690 10° North 290 334 8,600 1,000 Climbing FlightAware ADS-B
Mon 11:58:00 AM 47.7020 -122.4670 17° North 291 335 8,600 750 Level FlightAware ADS-B
Mon 11:58:05 AM 47.7092 -122.4630 21° North 293 337 8,700 1,500 Climbing FlightAware ADS-B
Mon 11:58:08 AM 47.7129 -122.4610 24° Northeast 295 339 8,800 2,571 Climbing FlightAware ADS-B
Mon 11:58:12 AM 47.7175 -122.4570 28° Northeast 296 341 9,000 2,000 Climbing FlightAware ADS-B
Mon 11:58:14 AM 47.7182 -122.4565 32° Northeast 297 342 9,000 1,500 Level FlightAware ADS-B (CYVR)
Mon 11:58:16 AM 47.7217 -122.4530 34° Northeast 297 342 9,100 3,600 Climbing FlightAware ADS-B
Mon 11:58:19 AM 47.7256 -122.4490 38° Northeast 298 343 9,300 3,429 Climbing FlightAware ADS-B
Mon 11:58:23 AM 47.7288 -122.4440 45° Northeast 298 343 9,500 3,333 Climbing FlightAware ADS-B
Mon 11:58:28 AM 47.7333 -122.4360 52° Northeast 300 345 9,800 4,200 Climbing FlightAware ADS-B
Mon 11:58:33 AM 47.7368 -122.4270 61° Northeast 301 346 10,200 4,000 Climbing FlightAware ADS-B
Mon 11:58:34 AM 47.7374 -122.4254 63° Northeast 302 348 10,200 2,400 Level FlightAware ADS-B (CYVR)
Mon 11:58:38 AM 47.7397 -122.4170 68° East 305 351 10,400 3,000 Climbing FlightAware ADS-B
Mon 11:58:42 AM 47.7413 -122.4090 75° East 310 357 10,600 3,000 Climbing FlightAware ADS-B
Mon 11:58:44 AM 47.7381 -122.4231 80° East 314 361 10,700 1,500 Climbing FlightAware ADS-B (CYVR)
Mon 11:58:46 AM 47.7424 -122.4000 82° East 315 362 10,700 1,714 Level FlightAware ADS-B
Mon 11:58:51 AM 47.7426 -122.3910 91° East 321 369 10,900 1,500 Climbing FlightAware ADS-B
Mon 11:58:54 AM 47.7421 -122.3830 97° East 325 374 10,900 1,000 Level FlightAware ADS-B
Mon 11:58:57 AM 47.7410 -122.3750 104° East 331 381 11,000 2,000 Climbing FlightAware ADS-B
Mon 11:59:00 AM 47.7396 -122.3690 109° East 334 384 11,100 1,714 Climbing FlightAware ADS-B
Mon 11:59:04 AM 47.7375 -122.3610 115° Southeast 337 388 11,200 1,333 Climbing FlightAware ADS-B
Mon 11:59:09 AM 47.7335 -122.3510 122° Southeast 343 395 11,300 1,385 Climbing FlightAware ADS-B
Mon 11:59:17 AM 47.7266 -122.3363 125° Southeast 355 409 11,500 1,600 Climbing FlightAware ADS-B (CYVR)
Mon 11:59:39 AM 47.7041 -122.2900 126° Southeast 385 443 12,100 2,195 Climbing FlightAware ADS-B
Mon 11:59:58 AM 47.6862 -122.2535 126° Southeast 397 457 13,000 3,000 Climbing FlightAware ADS-B (CYVR)
Mon 12:00:09 PM 47.6718 -122.2240 126° Southeast 402 463 13,600 3,073 Climbing FlightAware ADS-B
Mon 12:00:39 PM 47.6379 -122.1540 125° Southeast 420 483 15,100 3,000 Climbing FlightAware ADS-B
Mon 12:00:49 PM 47.6289 -122.1355 126° Southeast 406 467 15,600 2,700 Climbing FlightAware ADS-B (CYVR)
Mon 12:00:59 PM 47.6162 -122.1090 125° Southeast 426 490 16,000 2,286 Climbing FlightAware ADS-B
Mon 12:01:10 PM 47.6047 -122.0810 119° Southeast 433 498 16,400 2,118 Climbing FlightAware ADS-B
Mon 12:01:16 PM 47.5991 -122.0650 116° Southeast 437 503 16,600 1,333 Climbing FlightAware ADS-B
Mon 12:01:19 PM 47.6030 -122.0767 114° Southeast 437 503 16,600 600 Level FlightAware ADS-B (CYVR)
Mon 12:01:26 PM 47.5916 -122.0380 110° East 442 509 16,700 750 Climbing FlightAware ADS-B
Mon 12:01:35 PM 47.5860 -122.0110 105° East 447 514 16,800 316 Climbing FlightAware ADS-B
Mon 12:01:45 PM 47.5825 -121.9864 100° East 451 519 16,800  Level FlightAware ADS-B (CYVR)
Mon 12:02:05 PM 47.5742 -121.9190 101° East 448 516 16,800  Level FlightAware ADS-B
Mon 12:02:16 PM 47.5702 -121.8875 101° East 446 513 16,800  Level FlightAware ADS-B (CYVR)
Mon 12:02:35 PM 47.5630 -121.8300 101° East 446 513 16,800  Level FlightAware ADS-B
Mon 12:03:06 PM 47.5508 -121.7350 101° East 479 551 16,800  Level FlightAware ADS-B
Mon 12:03:19 PM 47.5464 -121.6997 101° East 484 557 16,800  Level FlightAware ADS-B (CYVR)
Mon 12:03:36 PM 47.5382 -121.6360 101° East 484 557 16,800  Level FlightAware ADS-B
Mon 12:03:58 PM 47.5291 -121.5669 101° East 482 555 16,800  Level FlightAware ADS-B (CYVR)
Mon 12:04:06 PM 47.5254 -121.5380 101° East 481 554 16,800  Level FlightAware ADS-B
Mon 12:04:37 PM 47.5126 -121.4400 101° East 479 551 16,800  Level FlightAware ADS-B
Mon 12:05:07 PM 47.4998 -121.3440 101° East 479 551 16,800  Level FlightAware ADS-B
Mon 12:05:39 PM 47.4863 -121.2420 101° East 480 552 16,800 -476 Level FlightAware ADS-B
Mon 12:06:10 PM 47.4729 -121.1430 101° East 477 549 16,300 -1,180 Descending FlightAware ADS-B
Mon 12:06:40 PM 47.4599 -121.0470 101° East 472 543 15,600 -1,406 Descending FlightAware ADS-B
Mon 12:07:14 PM 47.4454 -120.9400 101° East 467 537 14,800 -1,313 Descending FlightAware ADS-B
Mon 12:07:44 PM 47.4324 -120.8460 102° East 461 531 14,200 -984 Descending FlightAware ADS-B
Mon 12:08:15 PM 47.4194 -120.7520 101° East 449 517 13,800 -923 Descending FlightAware ADS-B
Mon 12:08:49 PM 47.4059 -120.6540 102° East 435 501 13,200 -1,031 Descending FlightAware ADS-B
Mon 12:09:19 PM 47.3938 -120.5680 102° East 424 488 12,700 -492 Descending FlightAware ADS-B
Mon 12:09:50 PM 47.3816 -120.4810 102° East 427 491 12,700 277 Level FlightAware ADS-B
Mon 12:10:24 PM 47.3681 -120.3925 102° East 429 494 13,000 -1,074 Climbing Seattle Center
Mon 12:11:25 PM 47.3436 -120.2256 102° East 420 483 11,000 -984 Descending Seattle Center
Mon 12:12:26 PM 47.3225 -120.0769 102° East 366 421 11,000 -344 Level Seattle Center
Mon 12:13:27 PM 47.3081 -119.9444 99° East 306 352 10,300 -1,623 Descending Seattle Center
Mon 12:14:28 PM 47.3183 -119.8256 83° East 295 339 7,700 -2,430 Descending Seattle Center
Mon 12:15:28 PM 47.3300 -119.7136 81° East 280 322 5,400 -1,240 Descending Seattle Center
Mon 12:16:29 PM 47.3381 -119.6219 83° East 276 318 5,200 -197 Descending Seattle Center
Mon 12:18:00 PM 47.2661 -119.4533 102° East  Level Estimated
Mon 12:25:00 PM 47.2000 -119.3167 104° East  Level FlightAware Approximate
Mon 12:26:00 PM 47.2086 -119.3191 104° East  Level Estimated
Mon 12:27:00 PM 47.2086 -119.3191 104° East  Level Estimated
Mon 12:28:00 PM 47.2086 -119.3191 104° East  Level Estimated
Mon 12:29:00 PM 47.2086 -119.3191 104° East  Level Estimated
Mon 12:30:00 PM 47.2086 -119.3191 104° East  Level Estimated
Mon 12:31:00 PM 47.2086 -119.3191 104° East  Level Estimated
Mon 12:32:00 PM 47.2086 -119.3191 104° East  Level Estimated
Mon 12:33:00 PM 47.2086 -119.3191 104° East  Level Estimated
Mon 12:34:00 PM 47.2086 -119.3191 104° East  Level Estimated
Mon 12:35:00 PM 47.2086 -119.3191 104° East  Level Estimated
Mon 12:36:00 PM 47.2086 -119.3191 104° East  Level Estimated

Login

Don't have an account? Register now (free) for customized features, flight alerts, and more!